createdAt,value
2022-11-03T00:03:11.718Z,7.63
2022-11-03T00:18:13.619Z,7.55
2022-11-03T00:33:15.537Z,7.28
2022-11-03T00:48:33.965Z,7.01
2022-11-03T01:03:37.676Z,6.81
2022-11-03T01:18:39.598Z,6.81
2022-11-03T01:33:42.201Z,6.62
2022-11-03T01:48:52.801Z,6.49
2022-11-03T02:04:01.579Z,6.28
2022-11-03T02:19:05.885Z,6.38
2022-11-03T02:34:21.559Z,6.39
2022-11-03T02:49:23.518Z,6.08
2022-11-03T03:04:42.278Z,5.76
2022-11-03T03:20:05.699Z,5.65
2022-11-03T03:35:13.718Z,5.43
2022-11-03T03:50:15.804Z,5.19
2022-11-03T04:05:17.797Z,5.03
2022-11-03T04:20:38.199Z,4.83
2022-11-03T04:35:40.297Z,4.49
2022-11-03T04:50:46.810Z,4.36
2022-11-03T05:05:49.119Z,3.99
2022-11-03T05:20:59.860Z,3.52
2022-11-03T05:36:08.257Z,3.53
2022-11-03T05:51:22.619Z,3.32
2022-11-03T06:06:36.320Z,3.29
2022-11-03T06:21:41.892Z,3.39
2022-11-03T06:36:46.397Z,3.67
2022-11-03T06:51:48.356Z,4.14
2022-11-03T07:06:53.444Z,4.81
2022-11-03T07:22:03.758Z,5.53
2022-11-03T07:37:05.730Z,6.24
2022-11-03T07:52:14.018Z,6.84
2022-11-03T08:07:16.020Z,7.35
2022-11-03T08:22:18.017Z,7.80
2022-11-03T08:37:19.917Z,8.20
2022-11-03T08:52:22.020Z,8.52
2022-11-03T09:07:24.242Z,8.85
2022-11-03T09:22:26.338Z,9.14
2022-11-03T09:37:28.917Z,9.42
2022-11-03T09:52:31.759Z,9.78
2022-11-03T10:07:33.720Z,10.17
2022-11-03T10:22:40.765Z,10.51
2022-11-03T10:37:43.018Z,10.78
2022-11-03T10:52:45.100Z,11.03
2022-11-03T11:07:51.260Z,11.17
2022-11-03T11:22:53.398Z,11.14
2022-11-03T11:37:55.321Z,11.13
2022-11-03T11:53:02.580Z,11.13
2022-11-03T12:08:18.743Z,11.39
2022-11-03T12:23:35.699Z,11.52
2022-11-03T12:38:37.738Z,11.62
2022-11-03T12:53:41.280Z,11.68
2022-11-03T13:08:44.753Z,11.71
2022-11-03T13:23:48.713Z,11.68
2022-11-03T13:38:50.691Z,11.65
2022-11-03T14:09:14.676Z,11.27
2022-11-03T14:24:17.300Z,10.92
2022-11-03T14:39:19.259Z,10.52
2022-11-03T14:54:21.366Z,9.97
2022-11-03T15:09:23.397Z,9.06
2022-11-03T15:39:47.900Z,7.48
2022-11-03T15:54:49.798Z,6.93
2022-11-03T16:09:51.719Z,6.57
2022-11-03T16:24:53.658Z,5.98
2022-11-03T16:39:55.580Z,5.58
2022-11-03T16:54:57.759Z,5.16
2022-11-03T17:09:59.779Z,5.34
2022-11-03T17:25:02.018Z,5.52
2022-11-03T17:40:04.499Z,5.50
2022-11-03T17:55:17.123Z,5.03
2022-11-03T18:10:19.799Z,4.79
2022-11-03T18:25:22.087Z,4.48
2022-11-03T18:40:24.273Z,4.25
2022-11-03T18:55:26.298Z,4.04
2022-11-03T19:10:28.281Z,3.73
2022-11-03T19:25:30.199Z,3.77
2022-11-03T19:40:32.997Z,4.07
2022-11-03T19:55:38.695Z,4.36
2022-11-03T20:10:40.720Z,4.67
2022-11-03T20:25:42.879Z,4.73
2022-11-03T20:40:45.840Z,4.76
2022-11-03T20:55:48.743Z,4.72
2022-11-03T21:10:50.681Z,4.65
2022-11-03T21:25:53.178Z,4.59
2022-11-03T21:41:15.058Z,4.55
2022-11-03T21:56:17.357Z,4.74
2022-11-03T22:11:22.222Z,4.74
2022-11-03T22:26:53.139Z,4.77
2022-11-03T22:42:13.695Z,5.00
2022-11-03T22:57:15.679Z,5.18
2022-11-03T23:12:17.640Z,5.31
2022-11-03T23:27:19.601Z,5.36
2022-11-03T23:42:21.479Z,5.43
2022-11-03T23:57:42.039Z,5.47
